sensor_id;sensor_type;location;lat;lon;timestamp;pressure;altitude;pressure_sealevel;temperature;humidity
74045;BME280;62389;51.412;5.436;2022-10-16T00:00:39;100950.50;;;12.10;86.91
74045;BME280;62389;51.412;5.436;2022-10-16T00:03:06;100942.63;;;12.10;86.69
74045;BME280;62389;51.412;5.436;2022-10-16T00:05:33;100941.63;;;12.12;86.52
74045;BME280;62389;51.412;5.436;2022-10-16T00:08:02;100944.16;;;12.14;86.80
74045;BME280;62389;51.412;5.436;2022-10-16T00:10:28;100941.53;;;12.14;86.45
74045;BME280;62389;51.412;5.436;2022-10-16T00:12:53;100940.69;;;12.13;86.72
74045;BME280;62389;51.412;5.436;2022-10-16T00:15:19;100937.22;;;12.13;86.65
74045;BME280;62389;51.412;5.436;2022-10-16T00:17:44;100939.75;;;12.14;86.62
74045;BME280;62389;51.412;5.436;2022-10-16T00:20:09;100941.53;;;12.14;86.43
74045;BME280;62389;51.412;5.436;2022-10-16T00:22:35;100938.84;;;12.15;86.64
74045;BME280;62389;51.412;5.436;2022-10-16T00:25:00;100930.16;;;12.15;86.61
74045;BME280;62389;51.412;5.436;2022-10-16T00:27:25;100929.22;;;12.16;86.34
74045;BME280;62389;51.412;5.436;2022-10-16T00:29:51;100934.50;;;12.14;86.39
74045;BME280;62389;51.412;5.436;2022-10-16T00:32:18;100930.19;;;12.13;86.72
74045;BME280;62389;51.412;5.436;2022-10-16T00:34:44;100928.50;;;12.12;86.50
74045;BME280;62389;51.412;5.436;2022-10-16T00:37:10;100932.06;;;12.11;86.28
74045;BME280;62389;51.412;5.436;2022-10-16T00:39:36;100938.16;;;12.12;86.53
74045;BME280;62389;51.412;5.436;2022-10-16T00:42:01;100950.50;;;12.10;86.19
74045;BME280;62389;51.412;5.436;2022-10-16T00:44:56;100947.94;;;12.08;85.94
74045;BME280;62389;51.412;5.436;2022-10-16T00:47:37;100952.41;;;12.06;86.13
74045;BME280;62389;51.412;5.436;2022-10-16T00:50:10;100958.56;;;12.05;86.22
74045;BME280;62389;51.412;5.436;2022-10-16T00:52:39;100950.94;;;12.01;86.32
74045;BME280;62389;51.412;5.436;2022-10-16T00:55:07;100946.66;;;11.98;86.94
74045;BME280;62389;51.412;5.436;2022-10-16T00:57:34;100948.44;;;11.98;86.93
74045;BME280;62389;51.412;5.436;2022-10-16T00:59:59;100939.09;;;11.92;86.20
74045;BME280;62389;51.412;5.436;2022-10-16T01:02:25;100944.56;;;11.87;86.78
74045;BME280;62389;51.412;5.436;2022-10-16T01:04:52;100938.59;;;11.84;86.57
74045;BME280;62389;51.412;5.436;2022-10-16T01:13:06;100932.16;;;11.72;86.20
74045;BME280;62389;51.412;5.436;2022-10-16T01:15:48;100932.28;;;11.69;86.54
74045;BME280;62389;51.412;5.436;2022-10-16T01:21:16;100941.44;;;11.60;87.49
74045;BME280;62389;51.412;5.436;2022-10-16T01:23:59;100933.63;;;11.59;87.47
74045;BME280;62389;51.412;5.436;2022-10-16T01:29:25;100942.41;;;11.58;87.42
74045;BME280;62389;51.412;5.436;2022-10-16T01:31:57;100952.75;;;11.61;87.74
74045;BME280;62389;51.412;5.436;2022-10-16T01:34:47;100950.91;;;11.63;87.42
74045;BME280;62389;51.412;5.436;2022-10-16T01:37:24;100949.22;;;11.62;87.16
74045;BME280;62389;51.412;5.436;2022-10-16T01:39:55;100950.16;;;11.61;87.58
74045;BME280;62389;51.412;5.436;2022-10-16T01:42:28;100956.31;;;11.60;87.80
74045;BME280;62389;51.412;5.436;2022-10-16T01:44:56;100958.00;;;11.61;87.64
74045;BME280;62389;51.412;5.436;2022-10-16T01:47:23;100953.63;;;11.61;87.60
74045;BME280;62389;51.412;5.436;2022-10-16T01:49:52;100948.38;;;11.61;87.65
74045;BME280;62389;51.412;5.436;2022-10-16T01:52:21;100950.06;;;11.62;87.47
74045;BME280;62389;51.412;5.436;2022-10-16T01:54:50;100948.28;;;11.63;87.66
74045;BME280;62389;51.412;5.436;2022-10-16T01:57:18;100948.22;;;11.64;87.63
74045;BME280;62389;51.412;5.436;2022-10-16T01:59:50;100950.78;;;11.66;87.50
74045;BME280;62389;51.412;5.436;2022-10-16T02:02:18;100954.16;;;11.68;87.57
74045;BME280;62389;51.412;5.436;2022-10-16T02:04:46;100953.25;;;11.69;87.59
74045;BME280;62389;51.412;5.436;2022-10-16T02:07:12;100945.38;;;11.69;87.14
74045;BME280;62389;51.412;5.436;2022-10-16T02:09:38;100955.84;;;11.69;87.23
74045;BME280;62389;51.412;5.436;2022-10-16T02:12:17;100969.81;;;11.70;86.95
74045;BME280;62389;51.412;5.436;2022-10-16T02:14:44;100954.16;;;11.68;87.25
74045;BME280;62389;51.412;5.436;2022-10-16T02:17:15;100949.78;;;11.68;87.22
74045;BME280;62389;51.412;5.436;2022-10-16T02:19:42;100949.09;;;11.65;87.15
74045;BME280;62389;51.412;5.436;2022-10-16T02:22:10;100940.59;;;11.60;87.55
74045;BME280;62389;51.412;5.436;2022-10-16T02:24:53;100945.13;;;11.56;87.46
74045;BME280;62389;51.412;5.436;2022-10-16T02:27:32;100940.00;;;11.53;87.57
74045;BME280;62389;51.412;5.436;2022-10-16T02:30:25;100950.56;;;11.52;86.93
74045;BME280;62389;51.412;5.436;2022-10-16T02:32:53;100943.63;;;11.51;87.55
74045;BME280;62389;51.412;5.436;2022-10-16T02:35:21;100944.59;;;11.48;87.50
74045;BME280;62389;51.412;5.436;2022-10-16T02:37:48;100950.66;;;11.50;87.77
74045;BME280;62389;51.412;5.436;2022-10-16T02:40:15;100956.66;;;11.52;87.69
74045;BME280;62389;51.412;5.436;2022-10-16T02:42:41;100951.31;;;11.54;87.55
74045;BME280;62389;51.412;5.436;2022-10-16T02:45:09;100956.56;;;11.54;87.39
74045;BME280;62389;51.412;5.436;2022-10-16T02:47:35;100946.03;;;11.55;87.51
74045;BME280;62389;51.412;5.436;2022-10-16T02:50:00;100949.50;;;11.56;87.29
74045;BME280;62389;51.412;5.436;2022-10-16T02:52:26;100958.28;;;11.55;87.11
74045;BME280;62389;51.412;5.436;2022-10-16T02:54:51;100952.25;;;11.53;87.40
74045;BME280;62389;51.412;5.436;2022-10-16T02:57:17;100952.34;;;11.51;87.30
74045;BME280;62389;51.412;5.436;2022-10-16T02:59:43;100946.28;;;11.49;87.24
74045;BME280;62389;51.412;5.436;2022-10-16T03:02:09;100955.16;;;11.47;87.00
74045;BME280;62389;51.412;5.436;2022-10-16T03:04:34;100950.97;;;11.43;87.46
74045;BME280;62389;51.412;5.436;2022-10-16T03:06:59;100959.84;;;11.40;87.51
74045;BME280;62389;51.412;5.436;2022-10-16T03:09:25;100961.56;;;11.39;87.76
74045;BME280;62389;51.412;5.436;2022-10-16T03:11:50;100962.47;;;11.40;87.66
74045;BME280;62389;51.412;5.436;2022-10-16T03:14:15;100964.19;;;11.39;87.75
74045;BME280;62389;51.412;5.436;2022-10-16T03:16:41;100959.88;;;11.38;87.54
74045;BME280;62389;51.412;5.436;2022-10-16T03:19:06;100980.00;;;11.38;87.74
74045;BME280;62389;51.412;5.436;2022-10-16T03:21:31;100980.16;;;11.35;87.88
74045;BME280;62389;51.412;5.436;2022-10-16T03:23:57;100979.34;;;11.33;87.99
74045;BME280;62389;51.412;5.436;2022-10-16T03:26:22;100974.94;;;11.33;87.99
74045;BME280;62389;51.412;5.436;2022-10-16T03:28:47;100982.75;;;11.35;88.15
74045;BME280;62389;51.412;5.436;2022-10-16T03:31:13;100991.47;;;11.35;88.19
74045;BME280;62389;51.412;5.436;2022-10-16T03:33:38;100981.75;;;11.37;87.86
74045;BME280;62389;51.412;5.436;2022-10-16T03:36:04;100966.91;;;11.38;87.96
74045;BME280;62389;51.412;5.436;2022-10-16T03:38:29;100968.66;;;11.37;88.04
74045;BME280;62389;51.412;5.436;2022-10-16T03:40:54;100972.97;;;11.38;88.17
74045;BME280;62389;51.412;5.436;2022-10-16T03:43:20;100984.31;;;11.39;88.08
74045;BME280;62389;51.412;5.436;2022-10-16T03:45:45;100997.34;;;11.40;88.30
74045;BME280;62389;51.412;5.436;2022-10-16T03:48:10;100996.44;;;11.41;88.42
74045;BME280;62389;51.412;5.436;2022-10-16T03:50:36;100996.44;;;11.41;88.05
74045;BME280;62389;51.412;5.436;2022-10-16T03:53:01;101000.75;;;11.43;88.00
74045;BME280;62389;51.412;5.436;2022-10-16T03:55:27;101012.00;;;11.45;88.01
74045;BME280;62389;51.412;5.436;2022-10-16T03:57:52;100993.69;;;11.45;88.37
74045;BME280;62389;51.412;5.436;2022-10-16T04:00:17;101001.38;;;11.48;88.11
74045;BME280;62389;51.412;5.436;2022-10-16T04:02:43;100998.75;;;11.48;88.30
74045;BME280;62389;51.412;5.436;2022-10-16T04:05:08;100993.53;;;11.48;88.50
74045;BME280;62389;51.412;5.436;2022-10-16T04:07:34;101005.69;;;11.49;88.25
74045;BME280;62389;51.412;5.436;2022-10-16T04:09:59;100999.56;;;11.50;88.13
74045;BME280;62389;51.412;5.436;2022-10-16T04:12:25;101008.28;;;11.50;88.19
74045;BME280;62389;51.412;5.436;2022-10-16T04:14:51;101002.19;;;11.50;88.45
74045;BME280;62389;51.412;5.436;2022-10-16T04:17:16;101009.13;;;11.51;88.42
74045;BME280;62389;51.412;5.436;2022-10-16T04:19:41;101007.25;;;11.53;88.44
74045;BME280;62389;51.412;5.436;2022-10-16T04:22:07;101010.69;;;11.55;88.35
74045;BME280;62389;51.412;5.436;2022-10-16T04:24:32;101010.69;;;11.55;88.36
74045;BME280;62389;51.412;5.436;2022-10-16T04:26:58;101005.44;;;11.55;88.58
74045;BME280;62389;51.412;5.436;2022-10-16T04:29:23;101005.44;;;11.55;88.30
74045;BME280;62389;51.412;5.436;2022-10-16T04:31:48;101007.13;;;11.56;88.32
74045;BME280;62389;51.412;5.436;2022-10-16T04:34:14;101019.31;;;11.57;88.61
74045;BME280;62389;51.412;5.436;2022-10-16T04:36:39;101018.47;;;11.56;88.52
74045;BME280;62389;51.412;5.436;2022-10-16T04:39:04;101008.84;;;11.57;88.41
74045;BME280;62389;51.412;5.436;2022-10-16T04:41:30;101014.91;;;11.57;88.52
74045;BME280;62389;51.412;5.436;2022-10-16T04:43:55;101021.84;;;11.58;88.49
74045;BME280;62389;51.412;5.436;2022-10-16T04:46:20;101021.84;;;11.58;88.45
74045;BME280;62389;51.412;5.436;2022-10-16T04:48:46;101023.53;;;11.59;88.61
74045;BME280;62389;51.412;5.436;2022-10-16T04:51:12;101033.19;;;11.59;88.49
74045;BME280;62389;51.412;5.436;2022-10-16T04:53:37;101040.28;;;11.57;88.85
74045;BME280;62389;51.412;5.436;2022-10-16T04:56:03;101038.50;;;11.57;88.67
74045;BME280;62389;51.412;5.436;2022-10-16T04:58:28;101039.34;;;11.58;88.65
74045;BME280;62389;51.412;5.436;2022-10-16T05:00:53;101037.56;;;11.58;88.87
74045;BME280;62389;51.412;5.436;2022-10-16T05:03:19;101036.72;;;11.58;88.55
74045;BME280;62389;51.412;5.436;2022-10-16T05:05:45;101035.97;;;11.56;88.68
74045;BME280;62389;51.412;5.436;2022-10-16T05:08:12;101039.41;;;11.56;88.68
74045;BME280;62389;51.412;5.436;2022-10-16T05:10:38;101060.38;;;11.56;89.04
74045;BME280;62389;51.412;5.436;2022-10-16T05:13:03;101067.31;;;11.57;89.19
74045;BME280;62389;51.412;5.436;2022-10-16T05:15:29;101070.84;;;11.56;88.82
74045;BME280;62389;51.412;5.436;2022-10-16T05:17:55;101067.41;;;11.56;89.15
74045;BME280;62389;51.412;5.436;2022-10-16T05:20:21;101078.78;;;11.55;89.16
74045;BME280;62389;51.412;5.436;2022-10-16T05:22:47;101068.31;;;11.55;89.13
74045;BME280;62389;51.412;5.436;2022-10-16T05:25:12;101068.31;;;11.55;88.97
74045;BME280;62389;51.412;5.436;2022-10-16T05:27:38;101070.94;;;11.55;88.94
74045;BME280;62389;51.412;5.436;2022-10-16T05:30:03;101078.78;;;11.55;89.34
74045;BME280;62389;51.412;5.436;2022-10-16T05:32:29;101067.50;;;11.53;89.38
74045;BME280;62389;51.412;5.436;2022-10-16T05:34:54;101083.22;;;11.53;89.20
74045;BME280;62389;51.412;5.436;2022-10-16T05:37:19;101085.84;;;11.53;89.06
74045;BME280;62389;51.412;5.436;2022-10-16T05:39:45;101078.91;;;11.52;89.17
74045;BME280;62389;51.412;5.436;2022-10-16T05:42:10;101092.94;;;11.51;89.48
74045;BME280;62389;51.412;5.436;2022-10-16T05:44:36;101098.28;;;11.48;89.40
74045;BME280;62389;51.412;5.436;2022-10-16T05:47:01;101107.94;;;11.47;89.26
74045;BME280;62389;51.412;5.436;2022-10-16T05:49:26;101114.16;;;11.45;89.42
74045;BME280;62389;51.412;5.436;2022-10-16T05:51:52;101116.81;;;11.43;89.54
74045;BME280;62389;51.412;5.436;2022-10-16T05:54:17;101115.97;;;11.43;89.39
74045;BME280;62389;51.412;5.436;2022-10-16T05:56:43;101114.28;;;11.41;89.51
74045;BME280;62389;51.412;5.436;2022-10-16T05:59:08;101123.91;;;11.41;89.61
74045;BME280;62389;51.412;5.436;2022-10-16T06:01:34;101130.06;;;11.40;89.60
74045;BME280;62389;51.412;5.436;2022-10-16T06:04:00;101124.88;;;11.38;89.75
74045;BME280;62389;51.412;5.436;2022-10-16T06:06:27;101128.41;;;11.37;89.84
74045;BME280;62389;51.412;5.436;2022-10-16T06:08:53;101146.69;;;11.39;88.95
74045;BME280;62389;51.412;5.436;2022-10-16T06:11:22;101136.34;;;11.36;89.77
74045;BME280;62389;51.412;5.436;2022-10-16T06:13:51;101140.75;;;11.35;89.88
74045;BME280;62389;51.412;5.436;2022-10-16T06:16:17;101135.50;;;11.35;89.98
74045;BME280;62389;51.412;5.436;2022-10-16T06:18:43;101150.28;;;11.36;89.88
74045;BME280;62389;51.412;5.436;2022-10-16T06:21:14;101159.00;;;11.37;89.76
74045;BME280;62389;51.412;5.436;2022-10-16T06:23:41;101161.63;;;11.37;89.72
74045;BME280;62389;51.412;5.436;2022-10-16T06:26:08;101158.06;;;11.38;90.09
74045;BME280;62389;51.412;5.436;2022-10-16T06:28:34;101158.16;;;11.36;89.91
74045;BME280;62389;51.412;5.436;2022-10-16T06:31:00;101160.69;;;11.38;90.09
74045;BME280;62389;51.412;5.436;2022-10-16T06:33:26;101163.38;;;11.36;90.01
74045;BME280;62389;51.412;5.436;2022-10-16T06:35:51;101165.16;;;11.36;90.11
74045;BME280;62389;51.412;5.436;2022-10-16T06:38:17;101178.19;;;11.37;89.87
74045;BME280;62389;51.412;5.436;2022-10-16T06:40:42;101191.19;;;11.39;89.95
74045;BME280;62389;51.412;5.436;2022-10-16T06:43:07;101182.44;;;11.40;89.83
74045;BME280;62389;51.412;5.436;2022-10-16T06:45:33;101194.63;;;11.41;89.87
74045;BME280;62389;51.412;5.436;2022-10-16T06:47:58;101188.47;;;11.42;89.73
74045;BME280;62389;51.412;5.436;2022-10-16T06:50:23;101205.84;;;11.45;89.80
74045;BME280;62389;51.412;5.436;2022-10-16T06:52:49;101210.16;;;11.46;89.50
74045;BME280;62389;51.412;5.436;2022-10-16T06:55:14;101211.84;;;11.47;89.86
74045;BME280;62389;51.412;5.436;2022-10-16T06:57:42;101209.13;;;11.50;89.86
74045;BME280;62389;51.412;5.436;2022-10-16T07:00:07;101210.75;;;11.52;89.51
74045;BME280;62389;51.412;5.436;2022-10-16T07:02:33;101221.94;;;11.56;89.72
74045;BME280;62389;51.412;5.436;2022-10-16T07:04:58;101218.34;;;11.58;89.65
74045;BME280;62389;51.412;5.436;2022-10-16T07:07:24;101223.38;;;11.63;89.48
74045;BME280;62389;51.412;5.436;2022-10-16T07:09:50;101236.31;;;11.67;89.47
74045;BME280;62389;51.412;5.436;2022-10-16T07:12:15;101237.03;;;11.71;89.53
74045;BME280;62389;51.412;5.436;2022-10-16T07:14:40;101238.63;;;11.75;89.53
74045;BME280;62389;51.412;5.436;2022-10-16T07:17:06;101241.91;;;11.80;89.30
74045;BME280;62389;51.412;5.436;2022-10-16T07:19:31;101250.44;;;11.85;89.10
74045;BME280;62389;51.412;5.436;2022-10-16T07:21:56;101248.47;;;11.90;89.11
74045;BME280;62389;51.412;5.436;2022-10-16T07:24:22;101249.78;;;12.01;89.18
74045;BME280;62389;51.412;5.436;2022-10-16T07:26:47;101260.44;;;12.37;88.85
74045;BME280;62389;51.412;5.436;2022-10-16T07:29:15;101259.28;;;13.01;87.02
74045;BME280;62389;51.412;5.436;2022-10-16T07:31:42;101262.06;;;14.38;83.92
74045;BME280;62389;51.412;5.436;2022-10-16T07:34:08;101258.34;;;15.84;78.94
74045;BME280;62389;51.412;5.436;2022-10-16T07:36:34;101267.19;;;17.26;72.72
74045;BME280;62389;51.412;5.436;2022-10-16T07:39:00;101269.00;;;18.56;68.74
74045;BME280;62389;51.412;5.436;2022-10-16T07:41:25;101266.78;;;18.75;65.97
74045;BME280;62389;51.412;5.436;2022-10-16T07:43:52;101276.94;;;18.05;67.17
74045;BME280;62389;51.412;5.436;2022-10-16T07:46:19;101279.38;;;17.28;69.61
74045;BME280;62389;51.412;5.436;2022-10-16T07:48:44;101287.28;;;16.58;71.46
74045;BME280;62389;51.412;5.436;2022-10-16T07:51:16;101295.03;;;16.03;73.06
74045;BME280;62389;51.412;5.436;2022-10-16T07:53:42;101299.75;;;15.52;75.07
74045;BME280;62389;51.412;5.436;2022-10-16T07:56:08;101293.88;;;15.31;76.43
74045;BME280;62389;51.412;5.436;2022-10-16T07:58:35;101302.25;;;15.85;75.13
74045;BME280;62389;51.412;5.436;2022-10-16T08:01:04;101312.66;;;17.31;69.83
74045;BME280;62389;51.412;5.436;2022-10-16T08:03:31;101324.00;;;18.65;65.81
74045;BME280;62389;51.412;5.436;2022-10-16T08:05:57;101319.38;;;19.79;62.83
74045;BME280;62389;51.412;5.436;2022-10-16T08:08:22;101322.09;;;20.12;59.68
74045;BME280;62389;51.412;5.436;2022-10-16T08:10:48;101330.63;;;20.40;58.80
74045;BME280;62389;51.412;5.436;2022-10-16T08:13:13;101321.84;;;21.61;57.62
74045;BME280;62389;51.412;5.436;2022-10-16T08:15:40;101322.97;;;22.84;57.35
74045;BME280;62389;51.412;5.436;2022-10-16T08:18:05;101313.31;;;24.01;51.75
74045;BME280;62389;51.412;5.436;2022-10-16T08:20:32;101321.72;;;24.25;47.55
74045;BME280;62389;51.412;5.436;2022-10-16T08:22:59;101331.03;;;24.02;49.47
74045;BME280;62389;51.412;5.436;2022-10-16T08:25:24;101336.34;;;24.31;47.28
74045;BME280;62389;51.412;5.436;2022-10-16T08:27:50;101331.75;;;25.08;45.69
74045;BME280;62389;51.412;5.436;2022-10-16T08:30:17;101333.88;;;24.94;44.72
74045;BME280;62389;51.412;5.436;2022-10-16T08:32:43;101336.31;;;25.43;44.77
74045;BME280;62389;51.412;5.436;2022-10-16T08:35:09;101340.25;;;26.46;42.49
74045;BME280;62389;51.412;5.436;2022-10-16T08:37:35;101341.38;;;26.69;41.04
74045;BME280;62389;51.412;5.436;2022-10-16T08:40:01;101347.81;;;27.19;41.89
74045;BME280;62389;51.412;5.436;2022-10-16T08:51:02;101366.47;;;27.87;38.18
74045;BME280;62389;51.412;5.436;2022-10-16T08:53:52;101373.03;;;28.33;41.42
74045;BME280;62389;51.412;5.436;2022-10-16T08:56:19;101370.00;;;29.00;37.34
74045;BME280;62389;51.412;5.436;2022-10-16T08:58:46;101370.25;;;29.53;35.56
74045;BME280;62389;51.412;5.436;2022-10-16T09:01:14;101369.44;;;29.75;36.00
74045;BME280;62389;51.412;5.436;2022-10-16T09:04:44;101375.59;;;29.61;34.50
74045;BME280;62389;51.412;5.436;2022-10-16T09:12:48;101384.00;;;30.50;34.74
74045;BME280;62389;51.412;5.436;2022-10-16T09:18:18;101389.34;;;30.20;34.54
74045;BME280;62389;51.412;5.436;2022-10-16T09:21:23;101400.72;;;30.30;32.61
74045;BME280;62389;51.412;5.436;2022-10-16T09:23:50;101396.56;;;30.42;34.15
74045;BME280;62389;51.412;5.436;2022-10-16T09:26:16;101403.22;;;31.29;32.71
74045;BME280;62389;51.412;5.436;2022-10-16T09:28:43;101405.75;;;31.88;30.63
74045;BME280;62389;51.412;5.436;2022-10-16T09:31:19;101401.63;;;31.05;32.12
74045;BME280;62389;51.412;5.436;2022-10-16T09:33:59;101403.59;;;30.06;34.67
74045;BME280;62389;51.412;5.436;2022-10-16T09:36:27;101409.31;;;28.29;35.69
74045;BME280;62389;51.412;5.436;2022-10-16T09:39:07;101412.81;;;26.70;40.04
74045;BME280;62389;51.412;5.436;2022-10-16T09:41:37;101415.00;;;24.95;41.29
74045;BME280;62389;51.412;5.436;2022-10-16T09:44:16;101417.69;;;23.90;43.83
74045;BME280;62389;51.412;5.436;2022-10-16T09:46:43;101420.84;;;23.64;45.88
74045;BME280;62389;51.412;5.436;2022-10-16T09:49:23;101417.81;;;23.38;46.18
74045;BME280;62389;51.412;5.436;2022-10-16T09:51:49;101420.84;;;22.72;46.72
74045;BME280;62389;51.412;5.436;2022-10-16T09:54:17;101416.34;;;22.10;49.19
74045;BME280;62389;51.412;5.436;2022-10-16T09:56:44;101424.66;;;21.73;49.45
74045;BME280;62389;51.412;5.436;2022-10-16T09:59:19;101420.31;;;21.72;50.23
74045;BME280;62389;51.412;5.436;2022-10-16T10:01:47;101420.34;;;21.61;50.49
74045;BME280;62389;51.412;5.436;2022-10-16T10:04:13;101415.38;;;21.68;50.57
74045;BME280;62389;51.412;5.436;2022-10-16T10:06:43;101421.44;;;22.02;51.21
74045;BME280;62389;51.412;5.436;2022-10-16T10:09:19;101425.91;;;22.34;50.49
74045;BME280;62389;51.412;5.436;2022-10-16T10:12:00;101431.41;;;22.53;51.42
74045;BME280;62389;51.412;5.436;2022-10-16T10:14:35;101427.97;;;22.09;48.98
74045;BME280;62389;51.412;5.436;2022-10-16T10:35:45;101449.34;;;20.75;52.33
74045;BME280;62389;51.412;5.436;2022-10-16T10:40:49;101456.81;;;20.58;53.71
74045;BME280;62389;51.412;5.436;2022-10-16T10:46:14;101457.84;;;20.21;53.54
74045;BME280;62389;51.412;5.436;2022-10-16T10:48:50;101457.88;;;20.32;53.80
74045;BME280;62389;51.412;5.436;2022-10-16T10:51:31;101462.97;;;19.87;54.68
74045;BME280;62389;51.412;5.436;2022-10-16T11:07:53;101466.88;;;19.94;54.65
74045;BME280;62389;51.412;5.436;2022-10-16T11:10:27;101464.44;;;20.15;54.43
74045;BME280;62389;51.412;5.436;2022-10-16T11:13:08;101457.59;;;20.48;55.48
74045;BME280;62389;51.412;5.436;2022-10-16T11:15:39;101456.13;;;20.79;51.39
74045;BME280;62389;51.412;5.436;2022-10-16T11:18:10;101453.72;;;20.98;51.33
74045;BME280;62389;51.412;5.436;2022-10-16T11:20:47;101457.84;;;21.13;52.40
74045;BME280;62389;51.412;5.436;2022-10-16T11:23:53;101458.59;;;21.04;52.15
74045;BME280;62389;51.412;5.436;2022-10-16T11:26:26;101465.94;;;21.12;51.25
74045;BME280;62389;51.412;5.436;2022-10-16T11:28:56;101467.06;;;21.20;50.91
74045;BME280;62389;51.412;5.436;2022-10-16T11:31:36;101469.94;;;21.17;50.88
74045;BME280;62389;51.412;5.436;2022-10-16T11:36:49;101478.56;;;20.63;50.94
74045;BME280;62389;51.412;5.436;2022-10-16T11:39:21;101474.66;;;20.56;51.80
74045;BME280;62389;51.412;5.436;2022-10-16T11:49:39;101476.44;;;20.80;53.64
74045;BME280;62389;51.412;5.436;2022-10-16T11:52:12;101474.25;;;20.85;51.05
74045;BME280;62389;51.412;5.436;2022-10-16T11:55:05;101468.25;;;21.05;50.19
74045;BME280;62389;51.412;5.436;2022-10-16T11:58:08;101470.66;;;20.97;50.87
74045;BME280;62389;51.412;5.436;2022-10-16T12:00:41;101476.84;;;21.09;51.21
74045;BME280;62389;51.412;5.436;2022-10-16T12:08:34;101476.75;;;21.33;50.52
74045;BME280;62389;51.412;5.436;2022-10-16T12:11:09;101470.91;;;21.16;50.94
74045;BME280;62389;51.412;5.436;2022-10-16T12:13:45;101474.63;;;20.91;51.66
74045;BME280;62389;51.412;5.436;2022-10-16T12:18:39;101474.50;;;20.82;51.04
74045;BME280;62389;51.412;5.436;2022-10-16T12:21:05;101489.38;;;20.49;53.21
74045;BME280;62389;51.412;5.436;2022-10-16T12:23:39;101484.38;;;20.44;51.97
74045;BME280;62389;51.412;5.436;2022-10-16T12:26:11;101474.59;;;20.45;53.44
74045;BME280;62389;51.412;5.436;2022-10-16T12:28:37;101471.59;;;20.85;53.03
74045;BME280;62389;51.412;5.436;2022-10-16T12:31:08;101467.66;;;21.46;51.09
74045;BME280;62389;51.412;5.436;2022-10-16T12:33:42;101482.00;;;22.00;50.07
74045;BME280;62389;51.412;5.436;2022-10-16T12:36:26;101474.56;;;22.47;50.37
74045;BME280;62389;51.412;5.436;2022-10-16T12:38:52;101475.03;;;22.52;46.81
74045;BME280;62389;51.412;5.436;2022-10-16T12:41:35;101471.97;;;22.57;47.80
74045;BME280;62389;51.412;5.436;2022-10-16T12:44:04;101474.78;;;22.23;46.92
74045;BME280;62389;51.412;5.436;2022-10-16T12:51:53;101478.66;;;21.53;50.47
74045;BME280;62389;51.412;5.436;2022-10-16T12:54:31;101480.59;;;21.62;50.29
74045;BME280;62389;51.412;5.436;2022-10-16T13:05:30;101464.34;;;20.87;51.18
74045;BME280;62389;51.412;5.436;2022-10-16T13:14:20;101473.91;;;21.01;52.63
74045;BME280;62389;51.412;5.436;2022-10-16T13:17:09;101473.22;;;21.10;52.31
74045;BME280;62389;51.412;5.436;2022-10-16T13:22:55;101482.41;;;21.17;51.31
74045;BME280;62389;51.412;5.436;2022-10-16T13:27:59;101481.72;;;20.68;52.80
74045;BME280;62389;51.412;5.436;2022-10-16T13:30:29;101489.19;;;20.63;53.40
74045;BME280;62389;51.412;5.436;2022-10-16T13:33:01;101489.88;;;20.54;52.48
74045;BME280;62389;51.412;5.436;2022-10-16T13:35:30;101491.38;;;20.46;53.26
74045;BME280;62389;51.412;5.436;2022-10-16T13:38:17;101506.47;;;20.45;53.49
74045;BME280;62389;51.412;5.436;2022-10-16T13:43:39;101501.72;;;20.37;53.85
74045;BME280;62389;51.412;5.436;2022-10-16T13:46:20;101500.84;;;20.26;55.02
74045;BME280;62389;51.412;5.436;2022-10-16T13:49:00;101496.53;;;20.12;54.43
74045;BME280;62389;51.412;5.436;2022-10-16T13:51:26;101499.66;;;20.06;53.24
74045;BME280;62389;51.412;5.436;2022-10-16T13:53:52;101500.44;;;19.95;54.61
74045;BME280;62389;51.412;5.436;2022-10-16T13:56:19;101504.47;;;19.88;55.70
74045;BME280;62389;51.412;5.436;2022-10-16T13:58:45;101512.88;;;19.82;56.00
74045;BME280;62389;51.412;5.436;2022-10-16T14:01:20;101510.78;;;19.74;55.93
74045;BME280;62389;51.412;5.436;2022-10-16T14:03:48;101511.13;;;19.70;56.65
74045;BME280;62389;51.412;5.436;2022-10-16T14:06:17;101516.56;;;19.68;60.82
74045;BME280;62389;51.412;5.436;2022-10-16T14:08:47;101515.59;;;19.69;60.90
74045;BME280;62389;51.412;5.436;2022-10-16T14:11:20;101513.03;;;19.67;58.43
74045;BME280;62389;51.412;5.436;2022-10-16T14:13:47;101512.25;;;19.53;56.16
74045;BME280;62389;51.412;5.436;2022-10-16T14:16:18;101518.56;;;19.39;58.43
74045;BME280;62389;51.412;5.436;2022-10-16T14:18:57;101507.97;;;19.39;61.25
74045;BME280;62389;51.412;5.436;2022-10-16T14:21:23;101505.06;;;19.42;62.05
74045;BME280;62389;51.412;5.436;2022-10-16T14:23:49;101500.59;;;19.42;62.53
74045;BME280;62389;51.412;5.436;2022-10-16T14:26:18;101492.56;;;19.44;62.37
74045;BME280;62389;51.412;5.436;2022-10-16T14:28:46;101495.41;;;19.41;61.39
74045;BME280;62389;51.412;5.436;2022-10-16T14:31:30;101507.63;;;19.44;61.88
74045;BME280;62389;51.412;5.436;2022-10-16T14:33:56;101500.59;;;19.42;63.20
74045;BME280;62389;51.412;5.436;2022-10-16T14:36:22;101487.47;;;19.41;63.22
74045;BME280;62389;51.412;5.436;2022-10-16T14:38:53;101488.53;;;19.38;63.89
74045;BME280;62389;51.412;5.436;2022-10-16T14:41:22;101492.56;;;19.44;61.39
74045;BME280;62389;51.412;5.436;2022-10-16T14:43:53;101493.09;;;19.49;60.19
74045;BME280;62389;51.412;5.436;2022-10-16T14:46:22;101489.34;;;19.52;62.89
74045;BME280;62389;51.412;5.436;2022-10-16T14:49:20;101489.88;;;19.57;63.29
74045;BME280;62389;51.412;5.436;2022-10-16T14:51:45;101498.50;;;19.60;63.21
74045;BME280;62389;51.412;5.436;2022-10-16T14:54:13;101500.19;;;19.61;63.03